createdAt,value
2018-09-02T00:00:38.032Z,3.53
2018-09-02T00:03:06.941Z,3.83
2018-09-02T00:05:35.897Z,5.00
2018-09-02T00:08:04.801Z,5.67
2018-09-02T00:10:33.792Z,2.87
2018-09-02T00:13:02.697Z,4.43
2018-09-02T00:15:31.680Z,3.77
2018-09-02T00:18:00.617Z,3.93
2018-09-02T00:20:29.562Z,2.63
2018-09-02T00:22:58.504Z,3.23
2018-09-02T00:25:27.456Z,3.87
2018-09-02T00:27:56.376Z,5.50
2018-09-02T00:30:25.349Z,2.57
2018-09-02T00:32:54.291Z,2.83
2018-09-02T00:35:23.287Z,3.33
2018-09-02T00:37:52.194Z,4.73
2018-09-02T00:40:21.153Z,3.60
2018-09-02T00:42:50.074Z,3.07
2018-09-02T00:45:19.148Z,4.03
2018-09-02T00:47:48.056Z,3.83
2018-09-02T00:50:17.013Z,4.83
2018-09-02T00:52:45.917Z,2.83
2018-09-02T00:55:14.856Z,5.53
2018-09-02T00:57:43.771Z,2.40
2018-09-02T01:00:12.713Z,3.03
2018-09-02T01:02:41.615Z,4.20
2018-09-02T01:05:10.512Z,4.10
2018-09-02T01:07:39.444Z,2.67
2018-09-02T01:10:08.348Z,3.53
2018-09-02T01:12:37.306Z,3.20
2018-09-02T01:15:06.473Z,2.87
2018-09-02T01:17:35.408Z,3.63
2018-09-02T01:20:04.460Z,2.63
2018-09-02T01:22:33.417Z,2.87
2018-09-02T01:25:02.373Z,4.23
2018-09-02T01:27:31.365Z,4.33
2018-09-02T01:30:00.572Z,3.93
2018-09-02T01:32:29.521Z,3.57
2018-09-02T01:34:58.493Z,3.37
2018-09-02T01:37:27.456Z,4.07
2018-09-02T01:39:56.364Z,2.90
2018-09-02T01:42:25.361Z,3.00
2018-09-02T01:44:54.281Z,2.97
2018-09-02T01:47:23.236Z,5.10
2018-09-02T01:49:52.181Z,3.03
2018-09-02T01:52:21.130Z,3.17
2018-09-02T01:54:50.043Z,2.57
2018-09-02T01:57:19.016Z,3.10
2018-09-02T01:59:48.001Z,3.00
2018-09-02T02:02:16.973Z,3.00
2018-09-02T02:04:45.885Z,2.70
2018-09-02T02:07:14.836Z,3.10
2018-09-02T02:09:44.354Z,2.90
2018-09-02T02:12:13.288Z,3.10
2018-09-02T02:14:42.273Z,3.23
2018-09-02T02:17:11.305Z,4.17
2018-09-02T02:19:40.304Z,3.43
2018-09-02T02:22:09.245Z,5.33
2018-09-02T02:24:38.265Z,3.83
2018-09-02T02:27:07.325Z,2.83
2018-09-02T02:29:36.313Z,2.50
2018-09-02T02:32:05.406Z,2.93
2018-09-02T02:34:34.337Z,2.97
2018-09-02T02:37:03.264Z,3.03
2018-09-02T02:39:32.201Z,3.00
2018-09-02T02:42:01.188Z,3.13
2018-09-02T02:44:30.177Z,2.70
2018-09-02T02:46:59.152Z,3.27
2018-09-02T02:49:28.052Z,2.63
2018-09-02T02:51:57.063Z,3.20
2018-09-02T02:54:25.977Z,3.47
2018-09-02T02:56:54.917Z,2.60
2018-09-02T02:59:23.880Z,2.77
2018-09-02T03:01:52.834Z,2.60
2018-09-02T03:04:21.809Z,2.40
2018-09-02T03:06:50.773Z,2.77
2018-09-02T03:09:19.716Z,4.80
2018-09-02T03:11:48.750Z,3.37
2018-09-02T03:14:17.709Z,3.07
2018-09-02T03:16:46.650Z,2.50
2018-09-02T03:19:15.606Z,3.97
2018-09-02T03:21:44.553Z,3.00
2018-09-02T03:24:13.500Z,2.67
2018-09-02T03:26:42.422Z,2.77
2018-09-02T03:29:11.373Z,3.23
2018-09-02T03:31:40.280Z,2.80
2018-09-02T03:34:09.252Z,2.73
2018-09-02T03:36:38.351Z,3.97
2018-09-02T03:39:07.632Z,3.30
2018-09-02T03:41:36.548Z,3.40
2018-09-02T03:44:05.505Z,3.13
2018-09-02T03:46:34.405Z,3.17
2018-09-02T03:49:03.602Z,5.57
2018-09-02T03:51:32.525Z,3.03
2018-09-02T03:54:01.457Z,3.27
2018-09-02T03:56:30.391Z,4.63
2018-09-02T03:58:59.482Z,3.60
2018-09-02T04:01:28.418Z,3.27
2018-09-02T04:03:57.358Z,3.67
2018-09-02T04:06:26.273Z,3.37
2018-09-02T04:08:55.397Z,3.30
2018-09-02T04:11:24.355Z,3.13
2018-09-02T04:13:53.265Z,3.93
2018-09-02T04:16:22.181Z,3.50
2018-09-02T04:18:51.116Z,3.93
2018-09-02T04:21:20.045Z,3.33
2018-09-02T04:23:48.976Z,3.57
2018-09-02T04:26:17.878Z,3.30
2018-09-02T04:28:46.825Z,3.33
2018-09-02T04:31:15.736Z,3.50
2018-09-02T04:33:44.840Z,3.43
2018-09-02T04:36:13.821Z,3.10
2018-09-02T04:38:42.766Z,3.20
2018-09-02T04:41:11.765Z,3.47
2018-09-02T04:43:40.701Z,3.20
2018-09-02T04:46:09.597Z,3.17
2018-09-02T04:48:38.554Z,3.07
2018-09-02T04:51:07.696Z,4.00
2018-09-02T04:53:36.634Z,3.33
2018-09-02T04:56:05.548Z,3.77
2018-09-02T04:58:34.490Z,3.20
2018-09-02T05:01:03.418Z,2.97
2018-09-02T05:03:32.360Z,3.30
2018-09-02T05:06:01.262Z,3.10
2018-09-02T05:08:30.207Z,2.87
2018-09-02T05:10:59.129Z,4.33
2018-09-02T05:13:28.117Z,3.60
2018-09-02T05:15:57.053Z,3.83
2018-09-02T05:18:26.205Z,3.40
2018-09-02T05:20:55.117Z,3.20
2018-09-02T05:23:24.049Z,4.63
2018-09-02T05:25:53.030Z,3.57
2018-09-02T05:28:21.974Z,3.30
2018-09-02T05:30:50.984Z,3.53
2018-09-02T05:33:19.920Z,3.47
2018-09-02T05:35:48.873Z,6.23
2018-09-02T05:38:17.838Z,3.90
2018-09-02T05:40:46.749Z,6.27
2018-09-02T05:43:15.673Z,6.93
2018-09-02T05:45:44.648Z,8.53
2018-09-02T05:48:13.591Z,15.10
2018-09-02T05:50:42.653Z,5.40
2018-09-02T05:53:11.594Z,5.33
2018-09-02T05:55:40.570Z,4.20
2018-09-02T05:58:09.507Z,8.50
2018-09-02T06:00:38.589Z,6.47
2018-09-02T06:03:07.553Z,9.60
2018-09-02T06:05:36.639Z,5.93
2018-09-02T06:08:05.605Z,11.83
2018-09-02T06:10:34.647Z,11.90
2018-09-02T06:13:03.597Z,8.30
2018-09-02T06:15:32.570Z,5.43
2018-09-02T06:18:01.537Z,6.50
2018-09-02T06:20:30.525Z,10.07
2018-09-02T06:22:59.433Z,13.27
2018-09-02T06:25:28.393Z,16.10
2018-09-02T06:27:57.529Z,4.77
2018-09-02T06:30:26.492Z,3.60
2018-09-02T06:32:56.667Z,19.10
2018-09-02T06:35:25.650Z,4.20
2018-09-02T06:37:54.625Z,10.93
2018-09-02T06:40:23.617Z,5.77
2018-09-02T06:42:52.540Z,4.07
2018-09-02T06:45:21.617Z,7.23
2018-09-02T06:47:50.655Z,10.83
2018-09-02T06:50:19.649Z,5.13
2018-09-02T06:52:48.598Z,7.97
2018-09-02T06:55:17.596Z,3.70
2018-09-02T06:57:46.719Z,21.63
2018-09-02T07:00:15.678Z,4.80
2018-09-02T07:02:44.611Z,5.13
2018-09-02T07:05:13.570Z,3.67
2018-09-02T07:07:42.500Z,6.57
2018-09-02T07:10:11.470Z,18.77
2018-09-02T07:12:40.395Z,5.17
2018-09-02T07:15:09.361Z,6.33
2018-09-02T07:17:38.304Z,3.80
2018-09-02T07:20:07.895Z,6.33
2018-09-02T07:22:36.863Z,3.67
2018-09-02T07:25:05.970Z,8.57
2018-09-02T07:27:34.917Z,6.10
2018-09-02T07:30:04.736Z,4.30
2018-09-02T07:32:33.690Z,2.73
2018-09-02T07:35:03.292Z,3.23
2018-09-02T07:37:32.370Z,8.23
2018-09-02T07:40:01.326Z,9.07
2018-09-02T07:42:30.518Z,12.00
2018-09-02T07:44:59.577Z,3.47
2018-09-02T07:47:28.608Z,3.20
2018-09-02T07:49:57.661Z,5.33
2018-09-02T07:52:26.630Z,5.73
2018-09-02T07:54:55.946Z,6.97
2018-09-02T07:57:24.913Z,4.53
2018-09-02T07:59:53.864Z,9.30
2018-09-02T08:02:22.979Z,18.50
2018-09-02T08:04:51.931Z,12.90
2018-09-02T08:07:20.894Z,6.00
2018-09-02T08:09:49.865Z,4.87
2018-09-02T08:12:21.038Z,12.57
2018-09-02T08:14:50.134Z,2.60
2018-09-02T08:17:19.269Z,3.13
2018-09-02T08:19:48.352Z,6.60
2018-09-02T08:22:17.352Z,4.60
2018-09-02T08:24:46.325Z,4.23
2018-09-02T08:27:15.270Z,3.10
2018-09-02T08:29:44.196Z,2.90
2018-09-02T08:32:13.131Z,3.70
2018-09-02T08:34:46.785Z,6.03
2018-09-02T08:37:15.717Z,2.67
2018-09-02T08:39:45.744Z,3.20
2018-09-02T08:42:14.693Z,2.83
2018-09-02T08:44:49.644Z,2.83
2018-09-02T08:47:18.615Z,2.57
2018-09-02T08:50:06.521Z,3.00
2018-09-02T08:52:35.481Z,3.47
2018-09-02T08:55:04.825Z,2.60
2018-09-02T08:57:33.760Z,2.47
2018-09-02T09:00:03.047Z,3.90
2018-09-02T09:02:32.001Z,3.20
2018-09-02T09:05:01.085Z,2.47
2018-09-02T09:07:31.254Z,3.53
2018-09-02T09:10:01.250Z,3.43
2018-09-02T09:12:30.206Z,2.50
2018-09-02T09:14:59.120Z,2.70
2018-09-02T09:17:28.113Z,2.60
2018-09-02T09:19:57.057Z,2.30
2018-09-02T09:22:26.068Z,2.40
2018-09-02T09:24:55.052Z,2.40
2018-09-02T09:27:24.017Z,2.57
2018-09-02T09:29:53.038Z,2.20
2018-09-02T09:32:22.001Z,2.27
2018-09-02T09:34:50.937Z,2.30
2018-09-02T09:37:19.920Z,2.43
2018-09-02T09:39:48.834Z,2.43
2018-09-02T09:42:17.933Z,2.20
2018-09-02T09:44:46.838Z,2.60
2018-09-02T09:47:15.779Z,2.13
2018-09-02T09:49:44.689Z,2.40
2018-09-02T09:52:13.732Z,2.17
2018-09-02T09:54:42.834Z,2.37
2018-09-02T09:57:11.788Z,2.07
2018-09-02T09:59:41.185Z,2.20
2018-09-02T10:02:10.157Z,2.33
2018-09-02T10:04:39.065Z,2.47
2018-09-02T10:07:08.009Z,2.60
2018-09-02T10:09:36.914Z,2.60
2018-09-02T10:12:05.908Z,2.43
2018-09-02T10:14:34.842Z,2.93
2018-09-02T10:17:03.845Z,3.60
2018-09-02T10:19:32.762Z,3.60
2018-09-02T10:22:02.193Z,5.90
2018-09-02T10:24:31.117Z,3.83
2018-09-02T10:27:00.093Z,3.27
2018-09-02T10:29:29.017Z,4.00
2018-09-02T10:31:58.087Z,3.67
2018-09-02T10:34:27.100Z,3.10
2018-09-02T10:36:56.148Z,3.33
2018-09-02T10:39:25.257Z,3.20
2018-09-02T10:41:54.389Z,2.93
2018-09-02T10:44:23.369Z,3.07
2018-09-02T10:46:52.320Z,3.57
2018-09-02T10:49:21.361Z,3.23
2018-09-02T10:51:50.325Z,2.90
2018-09-02T10:54:19.310Z,2.97
2018-09-02T10:56:48.224Z,2.80
2018-09-02T10:59:17.188Z,2.53
2018-09-02T11:01:46.124Z,3.10
2018-09-02T11:04:15.088Z,2.57
2018-09-02T11:06:48.375Z,2.90
2018-09-02T11:09:17.344Z,2.87
2018-09-02T11:11:47.324Z,2.90
2018-09-02T11:14:16.279Z,2.97
2018-09-02T11:16:45.223Z,3.37
2018-09-02T11:19:14.196Z,4.43
2018-09-02T11:21:43.142Z,4.20
2018-09-02T11:24:12.162Z,3.40
2018-09-02T11:26:41.131Z,4.13
2018-09-02T11:29:10.242Z,3.17
2018-09-02T11:31:39.214Z,3.00
2018-09-02T11:34:08.361Z,3.00
2018-09-02T11:36:37.293Z,2.70
2018-09-02T11:39:09.131Z,2.63
2018-09-02T11:41:38.105Z,3.00
2018-09-02T11:44:07.439Z,2.70
2018-09-02T11:46:36.381Z,2.73
2018-09-02T11:49:05.602Z,2.50
2018-09-02T11:51:34.532Z,2.50
2018-09-02T11:54:03.498Z,2.50
2018-09-02T11:56:32.404Z,2.57
2018-09-02T11:59:01.453Z,2.90
2018-09-02T12:01:30.573Z,2.83
2018-09-02T12:03:59.603Z,2.63
2018-09-02T12:06:28.956Z,2.50
2018-09-02T12:08:57.897Z,2.40
2018-09-02T12:11:26.797Z,2.53
2018-09-02T12:13:55.815Z,1.83
2018-09-02T12:16:25.870Z,1.80
2018-09-02T12:18:54.916Z,1.90
2018-09-02T12:21:23.863Z,2.00
2018-09-02T12:23:52.826Z,2.10
2018-09-02T12:26:21.754Z,2.20
2018-09-02T12:28:50.721Z,2.23
2018-09-02T12:31:19.652Z,2.03
2018-09-02T12:33:48.778Z,1.90
2018-09-02T12:36:17.742Z,1.83
2018-09-02T12:38:46.719Z,2.17
2018-09-02T12:41:15.676Z,3.13
2018-09-02T12:43:44.757Z,2.00
2018-09-02T12:46:13.693Z,2.20
2018-09-02T12:48:42.670Z,2.37
2018-09-02T12:51:11.693Z,2.13
2018-09-02T12:53:40.659Z,2.07
2018-09-02T12:56:09.590Z,2.13
2018-09-02T12:58:38.569Z,2.37
2018-09-02T13:01:07.691Z,2.43
2018-09-02T13:03:36.636Z,2.30
2018-09-02T13:06:05.594Z,1.87
2018-09-02T13:08:34.654Z,2.07
2018-09-02T13:11:04.158Z,2.30
2018-09-02T13:13:33.100Z,2.77
2018-09-02T13:16:02.182Z,2.50
2018-09-02T13:18:31.124Z,3.30
2018-09-02T13:21:00.105Z,3.33
2018-09-02T13:23:29.056Z,3.70
2018-09-02T13:25:58.042Z,2.90
2018-09-02T13:28:26.975Z,2.60
2018-09-02T13:30:55.954Z,2.70
2018-09-02T13:33:24.900Z,2.73
2018-09-02T13:35:53.972Z,3.83
2018-09-02T13:38:22.903Z,2.73
2018-09-02T13:40:51.886Z,3.07
2018-09-02T13:43:20.883Z,3.43
2018-09-02T13:45:49.844Z,4.33
2018-09-02T13:48:18.801Z,5.17
2018-09-02T13:50:47.781Z,4.80
2018-09-02T13:53:16.689Z,4.37
2018-09-02T13:55:45.686Z,5.27
2018-09-02T13:58:14.716Z,4.33
2018-09-02T14:00:43.736Z,5.77
2018-09-02T14:03:12.652Z,4.10
2018-09-02T14:05:41.612Z,3.40
2018-09-02T14:08:10.630Z,3.10
2018-09-02T14:10:39.833Z,3.43
2018-09-02T14:13:08.858Z,2.97
2018-09-02T14:15:37.817Z,3.30
2018-09-02T14:18:06.852Z,2.77
2018-09-02T14:20:35.864Z,2.50
2018-09-02T14:23:04.889Z,2.53
2018-09-02T14:25:33.869Z,2.77
2018-09-02T14:28:02.800Z,2.83
2018-09-02T14:30:31.782Z,2.20
2018-09-02T14:33:00.800Z,2.43
2018-09-02T14:35:29.838Z,3.17
2018-09-02T14:37:59.037Z,3.10
2018-09-02T14:40:28.002Z,3.00
2018-09-02T14:42:57.040Z,3.00
2018-09-02T14:45:26.060Z,2.43
2018-09-02T14:47:55.013Z,2.57
2018-09-02T14:50:23.991Z,2.77
2018-09-02T14:52:52.926Z,2.30
2018-09-02T14:55:21.984Z,2.47
2018-09-02T14:57:51.019Z,2.13
2018-09-02T15:00:20.008Z,2.10
2018-09-02T15:02:48.973Z,3.07
2018-09-02T15:05:17.996Z,2.20
2018-09-02T15:07:46.924Z,2.47
2018-09-02T15:10:15.890Z,1.90
2018-09-02T15:12:44.828Z,2.17
2018-09-02T15:15:13.805Z,2.43
2018-09-02T15:17:42.770Z,2.60
2018-09-02T15:20:11.708Z,2.53
2018-09-02T15:22:40.626Z,2.90
2018-09-02T15:25:09.576Z,4.37
2018-09-02T15:27:38.519Z,5.47
2018-09-02T15:30:07.676Z,9.70
2018-09-02T15:32:36.766Z,15.87
2018-09-02T15:35:06.015Z,13.67
2018-09-02T15:37:34.957Z,15.80
2018-09-02T15:40:04.414Z,15.10
2018-09-02T15:42:33.857Z,17.73
2018-09-02T15:45:03.425Z,9.90
2018-09-02T15:47:32.389Z,5.40
2018-09-02T15:50:01.372Z,6.83
2018-09-02T15:52:30.423Z,5.40
2018-09-02T15:54:59.349Z,5.03
2018-09-02T15:57:28.394Z,7.97
2018-09-02T15:59:57.324Z,6.90
2018-09-02T16:02:26.305Z,6.27
2018-09-02T16:04:55.325Z,4.57
2018-09-02T16:07:28.418Z,4.20
2018-09-02T16:09:57.438Z,3.83
2018-09-02T16:12:26.753Z,3.47
2018-09-02T16:14:56.117Z,3.20
2018-09-02T16:17:25.096Z,2.90
2018-09-02T16:19:54.199Z,2.47
2018-09-02T16:22:23.154Z,2.57
2018-09-02T16:24:52.082Z,3.73
2018-09-02T16:27:21.046Z,3.03
2018-09-02T16:29:49.958Z,2.87
2018-09-02T16:32:19.014Z,2.30
2018-09-02T16:34:48.014Z,2.27
2018-09-02T16:37:16.986Z,2.43
2018-09-02T16:39:45.960Z,2.40
2018-09-02T16:42:15.058Z,2.53
2018-09-02T16:44:43.968Z,2.43
2018-09-02T16:47:13.029Z,2.40
2018-09-02T16:49:41.958Z,3.00
2018-09-02T16:52:10.941Z,2.97
2018-09-02T16:54:39.871Z,2.27
2018-09-02T16:57:08.813Z,3.43
2018-09-02T16:59:37.736Z,2.43
2018-09-02T17:02:06.871Z,2.80
2018-09-02T17:04:37.833Z,2.30
2018-09-02T17:07:06.869Z,2.33
2018-09-02T17:09:35.816Z,2.40
2018-09-02T17:12:04.971Z,2.17
2018-09-02T17:14:33.760Z,2.60
2018-09-02T17:17:02.736Z,4.00
2018-09-02T17:19:33.994Z,2.43
2018-09-02T17:22:03.135Z,2.80
2018-09-02T17:24:32.109Z,2.43
2018-09-02T17:27:01.097Z,2.90
2018-09-02T17:29:30.035Z,2.97
2018-09-02T17:32:01.408Z,2.93
2018-09-02T17:34:30.377Z,3.73
2018-09-02T17:36:59.423Z,2.40
2018-09-02T17:39:28.353Z,2.97
2018-09-02T17:41:57.315Z,3.43
2018-09-02T17:44:26.245Z,3.17
2018-09-02T17:46:55.232Z,5.77
2018-09-02T17:49:24.196Z,3.73
2018-09-02T17:51:53.164Z,3.77
2018-09-02T17:54:22.186Z,3.90
2018-09-02T17:56:51.136Z,3.60
2018-09-02T17:59:20.254Z,4.27
2018-09-02T18:01:49.347Z,4.07
2018-09-02T18:04:18.351Z,4.37
2018-09-02T18:06:47.289Z,4.10
2018-09-02T18:09:16.233Z,4.67
2018-09-02T18:11:45.352Z,4.77
2018-09-02T18:14:14.323Z,4.47
2018-09-02T18:16:43.351Z,4.77
2018-09-02T18:19:12.350Z,6.43
2018-09-02T18:21:41.254Z,5.13
2018-09-02T18:24:10.211Z,5.17
2018-09-02T18:26:39.122Z,5.40
2018-09-02T18:29:08.066Z,5.00
2018-09-02T18:31:37.391Z,5.80
2018-09-02T18:34:06.357Z,5.63
2018-09-02T18:36:35.390Z,5.93
2018-09-02T18:39:06.461Z,5.57
2018-09-02T18:41:35.393Z,6.07
2018-09-02T18:44:04.571Z,5.80
2018-09-02T18:46:33.669Z,5.97
2018-09-02T18:49:02.708Z,6.13
2018-09-02T18:51:31.659Z,5.77
2018-09-02T18:54:00.582Z,6.40
2018-09-02T18:56:29.529Z,6.43
2018-09-02T18:58:58.641Z,6.43
2018-09-02T19:01:27.573Z,7.30
2018-09-02T19:03:56.676Z,6.37
2018-09-02T19:06:25.598Z,11.63
2018-09-02T19:08:54.558Z,6.33
2018-09-02T19:11:23.474Z,6.57
2018-09-02T19:13:52.453Z,6.97
2018-09-02T19:16:21.365Z,6.90
2018-09-02T19:18:50.353Z,7.33
2018-09-02T19:21:19.305Z,7.63
2018-09-02T19:23:48.260Z,6.57
2018-09-02T19:26:17.182Z,5.70
2018-09-02T19:28:46.114Z,7.27
2018-09-02T19:31:15.027Z,6.47
2018-09-02T19:33:44.052Z,6.43
2018-09-02T19:36:13.011Z,6.73
2018-09-02T19:38:42.114Z,7.00
2018-09-02T19:41:11.104Z,7.20
2018-09-02T19:43:40.066Z,6.63
2018-09-02T19:46:08.989Z,6.60
2018-09-02T19:48:37.951Z,6.13
2018-09-02T19:51:07.033Z,7.17
2018-09-02T19:53:36.580Z,7.50
2018-09-02T19:56:05.512Z,6.57
2018-09-02T19:58:34.538Z,6.77
2018-09-02T20:01:03.476Z,6.33
2018-09-02T20:03:32.649Z,7.90
2018-09-02T20:06:01.651Z,7.57
2018-09-02T20:08:30.705Z,8.10
2018-09-02T20:10:59.665Z,7.10
2018-09-02T20:13:28.581Z,7.20
2018-09-02T20:15:57.576Z,7.07
2018-09-02T20:18:26.477Z,7.67
2018-09-02T20:20:55.436Z,8.13
2018-09-02T20:23:24.415Z,7.40
2018-09-02T20:25:53.390Z,7.20
2018-09-02T20:28:22.308Z,7.13
2018-09-02T20:30:51.268Z,7.70
2018-09-02T20:33:20.338Z,8.40
2018-09-02T20:35:49.417Z,8.40
2018-09-02T20:38:18.387Z,7.87
2018-09-02T20:40:47.342Z,7.77
2018-09-02T20:43:16.266Z,7.40
2018-09-02T20:45:45.209Z,8.00
2018-09-02T20:48:14.142Z,7.60
2018-09-02T20:50:43.099Z,8.23
2018-09-02T20:53:12.010Z,7.77
2018-09-02T20:55:41.045Z,7.30
2018-09-02T20:58:09.983Z,7.20
2018-09-02T21:00:38.941Z,8.70
2018-09-02T21:03:07.861Z,7.73
2018-09-02T21:05:36.897Z,9.07
2018-09-02T21:08:05.898Z,7.53
2018-09-02T21:10:34.912Z,8.10
2018-09-02T21:13:03.918Z,7.87
2018-09-02T21:15:32.891Z,7.60
2018-09-02T21:18:01.894Z,7.43
2018-09-02T21:20:30.930Z,8.17
2018-09-02T21:22:59.896Z,17.80
2018-09-02T21:25:28.874Z,12.77
2018-09-02T21:27:57.815Z,8.90
2018-09-02T21:30:27.028Z,36.10
2018-09-02T21:32:55.998Z,10.00
2018-09-02T21:35:25.013Z,17.50
2018-09-02T21:37:53.969Z,14.07
2018-09-02T21:40:22.945Z,22.83
2018-09-02T21:42:51.877Z,15.77
2018-09-02T21:45:20.877Z,19.80
2018-09-02T21:47:49.818Z,10.03
2018-09-02T21:50:18.866Z,8.07
2018-09-02T21:52:47.882Z,8.83
2018-09-02T21:55:16.829Z,7.63
2018-09-02T21:57:45.760Z,19.63
2018-09-02T22:00:16.473Z,8.13
2018-09-02T22:02:45.685Z,8.57
2018-09-02T22:05:15.557Z,18.33
2018-09-02T22:07:44.502Z,21.20
2018-09-02T22:10:13.661Z,20.27
2018-09-02T22:12:42.589Z,13.77
2018-09-02T22:15:11.653Z,8.63
2018-09-02T22:17:40.644Z,8.20
2018-09-02T22:20:09.601Z,7.83
2018-09-02T22:22:38.608Z,8.37
2018-09-02T22:25:08.765Z,7.80
2018-09-02T22:27:37.783Z,8.03
2018-09-02T22:30:07.549Z,8.10
2018-09-02T22:32:36.489Z,8.50
2018-09-02T22:35:05.489Z,8.07
2018-09-02T22:37:34.463Z,17.77
2018-09-02T22:40:03.446Z,12.97
2018-09-02T22:42:32.417Z,7.40
2018-09-02T22:45:01.349Z,8.33
2018-09-02T22:47:30.305Z,8.23
2018-09-02T22:49:59.225Z,6.67
2018-09-02T22:52:28.177Z,7.83
2018-09-02T22:54:57.079Z,7.83
2018-09-02T22:57:26.174Z,8.53
2018-09-02T22:59:55.090Z,8.10
2018-09-02T23:02:24.150Z,8.13
2018-09-02T23:04:53.068Z,9.07
2018-09-02T23:07:22.017Z,8.47
2018-09-02T23:09:50.932Z,9.07
2018-09-02T23:12:19.973Z,7.87
2018-09-02T23:14:48.882Z,7.83
2018-09-02T23:17:17.850Z,7.87
2018-09-02T23:19:46.817Z,11.33
2018-09-02T23:22:15.773Z,7.87
2018-09-02T23:24:44.813Z,8.40
2018-09-02T23:27:13.770Z,7.37
2018-09-02T23:29:42.693Z,9.30
2018-09-02T23:32:11.677Z,8.27
2018-09-02T23:34:40.646Z,8.70
2018-09-02T23:37:09.618Z,8.93
2018-09-02T23:39:38.533Z,8.80
2018-09-02T23:42:07.494Z,8.60
2018-09-02T23:44:36.492Z,9.13
2018-09-02T23:47:05.466Z,9.03
2018-09-02T23:49:34.405Z,9.13
2018-09-02T23:52:03.366Z,10.03
2018-09-02T23:54:32.293Z,8.93
2018-09-02T23:57:01.246Z,9.37
2018-09-02T23:59:30.150Z,9.57
